sensor_id;sensor_type;location;lat;lon;timestamp;pressure;altitude;pressure_sealevel;temperature;humidity
75424;BME280;64005;55.160;36.002;2023-06-22T00:02:26;99288.78;;;8.66;69.22
75424;BME280;64005;55.160;36.002;2023-06-22T00:04:54;99290.25;;;8.63;68.66
75424;BME280;64005;55.160;36.002;2023-06-22T00:07:22;99294.47;;;8.61;68.80
75424;BME280;64005;55.160;36.002;2023-06-22T00:09:49;99293.13;;;8.58;69.28
75424;BME280;64005;55.160;36.002;2023-06-22T00:12:17;99297.88;;;8.58;69.26
75424;BME280;64005;55.160;36.002;2023-06-22T00:14:44;99299.84;;;8.57;69.30
75424;BME280;64005;55.160;36.002;2023-06-22T00:17:12;99300.16;;;8.56;69.38
75424;BME280;64005;55.160;36.002;2023-06-22T00:19:41;99303.22;;;8.54;69.24
75424;BME280;64005;55.160;36.002;2023-06-22T00:22:08;99295.53;;;8.51;69.46
75424;BME280;64005;55.160;36.002;2023-06-22T00:24:36;99288.69;;;8.49;69.34
75424;BME280;64005;55.160;36.002;2023-06-22T00:27:04;99288.16;;;8.47;69.62
75424;BME280;64005;55.160;36.002;2023-06-22T00:29:31;99292.91;;;8.46;69.33
75424;BME280;64005;55.160;36.002;2023-06-22T00:31:59;99292.06;;;8.46;69.69
75424;BME280;64005;55.160;36.002;2023-06-22T00:34:26;99281.63;;;8.43;69.64
75424;BME280;64005;55.160;36.002;2023-06-22T00:36:55;99291.06;;;8.42;69.57
75424;BME280;64005;55.160;36.002;2023-06-22T00:39:23;99294.16;;;8.40;69.83
75424;BME280;64005;55.160;36.002;2023-06-22T00:41:50;99292.22;;;8.41;69.42
75424;BME280;64005;55.160;36.002;2023-06-22T00:44:17;99286.16;;;8.38;69.43
75424;BME280;64005;55.160;36.002;2023-06-22T00:46:45;99281.44;;;8.39;69.81
75424;BME280;64005;55.160;36.002;2023-06-22T00:49:13;99277.84;;;8.38;69.75
75424;BME280;64005;55.160;36.002;2023-06-22T00:51:40;99279.47;;;8.40;69.36
75424;BME280;64005;55.160;36.002;2023-06-22T00:54:16;99263.91;;;8.30;69.31
75424;BME280;64005;55.160;36.002;2023-06-22T00:56:51;99279.91;;;8.33;69.40
75424;BME280;64005;55.160;36.002;2023-06-22T00:59:20;99287.09;;;8.34;69.79
75424;BME280;64005;55.160;36.002;2023-06-22T01:01:48;99279.09;;;8.32;69.74
75424;BME280;64005;55.160;36.002;2023-06-22T01:04:15;99280.72;;;8.33;69.70
75424;BME280;64005;55.160;36.002;2023-06-22T01:06:52;99290.19;;;8.32;69.79
75424;BME280;64005;55.160;36.002;2023-06-22T01:09:28;99279.72;;;8.29;69.63
75424;BME280;64005;55.160;36.002;2023-06-22T01:11:59;99284.47;;;8.15;69.86
75424;BME280;64005;55.160;36.002;2023-06-22T01:14:33;99292.66;;;8.20;69.66
75424;BME280;64005;55.160;36.002;2023-06-22T01:17:04;99287.81;;;8.26;69.73
75424;BME280;64005;55.160;36.002;2023-06-22T01:19:39;99285.03;;;8.26;69.78
75424;BME280;64005;55.160;36.002;2023-06-22T01:22:10;99207.63;;;7.85;69.68
75424;BME280;64005;55.160;36.002;2023-06-22T01:24:51;99291.81;;;8.33;69.77
75424;BME280;64005;55.160;36.002;2023-06-22T01:27:32;99274.09;;;8.21;69.42
75424;BME280;64005;55.160;36.002;2023-06-22T01:30:04;99288.44;;;8.36;69.44
75424;BME280;64005;55.160;36.002;2023-06-22T01:32:34;99299.69;;;8.40;69.47
75424;BME280;64005;55.160;36.002;2023-06-22T01:35:04;99291.91;;;8.42;69.91
75424;BME280;64005;55.160;36.002;2023-06-22T01:37:33;99285.41;;;8.47;69.79
75424;BME280;64005;55.160;36.002;2023-06-22T01:40:02;99213.84;;;8.04;69.49
75424;BME280;64005;55.160;36.002;2023-06-22T01:42:32;99286.59;;;8.54;69.86
75424;BME280;64005;55.160;36.002;2023-06-22T01:45:00;99289.53;;;8.58;69.92
75424;BME280;64005;55.160;36.002;2023-06-22T01:47:31;99285.41;;;8.47;69.50
75424;BME280;64005;55.160;36.002;2023-06-22T01:49:59;99295.91;;;8.58;69.67
75424;BME280;64005;55.160;36.002;2023-06-22T01:52:31;99282.94;;;8.67;69.63
75424;BME280;64005;55.160;36.002;2023-06-22T01:55:00;99296.53;;;8.77;69.40
75424;BME280;64005;55.160;36.002;2023-06-22T01:57:30;99198.13;;;8.22;69.38
75424;BME280;64005;55.160;36.002;2023-06-22T02:00:01;99276.25;;;8.68;69.82
75424;BME280;64005;55.160;36.002;2023-06-22T02:02:36;99293.03;;;8.94;69.54
75424;BME280;64005;55.160;36.002;2023-06-22T02:05:08;99295.38;;;9.01;69.59
75424;BME280;64005;55.160;36.002;2023-06-22T02:07:43;99294.28;;;9.10;69.62
75424;BME280;64005;55.160;36.002;2023-06-22T02:10:15;99295.78;;;9.16;69.35
75424;BME280;64005;55.160;36.002;2023-06-22T02:12:44;99282.38;;;9.18;69.71
75424;BME280;64005;55.160;36.002;2023-06-22T02:15:13;99285.88;;;9.33;69.86
75424;BME280;64005;55.160;36.002;2023-06-22T02:17:43;99285.91;;;9.41;69.66
75424;BME280;64005;55.160;36.002;2023-06-22T02:20:12;99289.53;;;9.50;69.80
75424;BME280;64005;55.160;36.002;2023-06-22T02:22:40;99294.63;;;9.57;69.78
75424;BME280;64005;55.160;36.002;2023-06-22T02:25:08;99296.25;;;9.67;69.95
75424;BME280;64005;55.160;36.002;2023-06-22T02:27:35;99286.81;;;9.76;69.83
75424;BME280;64005;55.160;36.002;2023-06-22T02:30:07;99301.22;;;9.87;69.96
75424;BME280;64005;55.160;36.002;2023-06-22T02:32:36;99300.91;;;9.97;69.98
75424;BME280;64005;55.160;36.002;2023-06-22T02:35:09;99291.41;;;9.98;70.09
75424;BME280;64005;55.160;36.002;2023-06-22T02:37:37;99301.59;;;10.20;70.03
75424;BME280;64005;55.160;36.002;2023-06-22T02:40:08;99299.00;;;10.32;70.10
75424;BME280;64005;55.160;36.002;2023-06-22T02:42:36;99292.63;;;10.49;69.51
75424;BME280;64005;55.160;36.002;2023-06-22T02:45:05;99290.22;;;11.02;69.63
75424;BME280;64005;55.160;36.002;2023-06-22T08:12:38;99185.41;;;26.52;36.38
75424;BME280;64005;55.160;36.002;2023-06-22T08:35:49;99170.38;;;26.68;35.37
75424;BME280;64005;55.160;36.002;2023-06-22T08:38:16;99166.91;;;26.76;35.65
75424;BME280;64005;55.160;36.002;2023-06-22T08:40:44;99172.03;;;27.05;35.55
75424;BME280;64005;55.160;36.002;2023-06-22T10:25:05;99079.69;;;28.97;30.80
75424;BME280;64005;55.160;36.002;2023-06-22T14:04:43;98905.63;;;30.01;26.66
75424;BME280;64005;55.160;36.002;2023-06-22T14:07:11;98898.09;;;29.94;27.61
75424;BME280;64005;55.160;36.002;2023-06-22T14:12:14;98899.03;;;30.22;26.86
75424;BME280;64005;55.160;36.002;2023-06-22T16:57:15;98757.78;;;24.19;45.01
75424;BME280;64005;55.160;36.002;2023-06-22T16:59:43;98753.75;;;23.93;45.39
75424;BME280;64005;55.160;36.002;2023-06-22T17:28:05;98730.22;;;22.13;49.20
75424;BME280;64005;55.160;36.002;2023-06-22T17:30:33;98745.13;;;22.17;49.41
75424;BME280;64005;55.160;36.002;2023-06-22T18:21:26;98722.47;;;19.99;55.80
75424;BME280;64005;55.160;36.002;2023-06-22T19:12:23;98684.56;;;19.36;57.09
75424;BME280;64005;55.160;36.002;2023-06-22T19:15:02;98687.81;;;19.31;57.35
75424;BME280;64005;55.160;36.002;2023-06-22T19:17:34;98690.22;;;19.29;57.55
75424;BME280;64005;55.160;36.002;2023-06-22T19:20:02;98684.97;;;19.13;57.05
75424;BME280;64005;55.160;36.002;2023-06-22T19:22:52;98689.41;;;19.18;57.12
75424;BME280;64005;55.160;36.002;2023-06-22T19:25:22;98686.97;;;19.16;57.54
75424;BME280;64005;55.160;36.002;2023-06-22T19:27:53;98682.56;;;19.22;57.09
75424;BME280;64005;55.160;36.002;2023-06-22T19:30:22;98684.59;;;19.25;56.95
75424;BME280;64005;55.160;36.002;2023-06-22T19:43:13;98668.44;;;19.12;56.81
75424;BME280;64005;55.160;36.002;2023-06-22T19:52:11;98700.28;;;19.30;55.03
75424;BME280;64005;55.160;36.002;2023-06-22T19:54:39;98686.59;;;19.42;54.73
75424;BME280;64005;55.160;36.002;2023-06-22T20:13:26;98688.53;;;20.27;52.39
75424;BME280;64005;55.160;36.002;2023-06-22T20:15:54;98690.13;;;20.39;52.37
75424;BME280;64005;55.160;36.002;2023-06-22T20:18:22;98691.72;;;20.47;52.16
75424;BME280;64005;55.160;36.002;2023-06-22T20:26:01;98698.09;;;20.61;52.09
75424;BME280;64005;55.160;36.002;2023-06-22T20:46:36;98590.97;;;19.98;52.79
75424;BME280;64005;55.160;36.002;2023-06-22T20:54:15;98624.00;;;20.18;52.88
75424;BME280;64005;55.160;36.002;2023-06-22T21:40:48;98692.59;;;20.08;57.47
75424;BME280;64005;55.160;36.002;2023-06-22T21:43:16;98586.66;;;19.43;57.40
75424;BME280;64005;55.160;36.002;2023-06-22T21:45:44;98592.31;;;19.40;57.62
75424;BME280;64005;55.160;36.002;2023-06-22T21:48:12;98719.19;;;20.21;58.29
75424;BME280;64005;55.160;36.002;2023-06-22T21:50:39;98726.06;;;20.17;58.57
75424;BME280;64005;55.160;36.002;2023-06-22T21:53:07;98720.44;;;20.13;59.16
75424;BME280;64005;55.160;36.002;2023-06-22T21:55:34;98721.25;;;20.10;59.56
75424;BME280;64005;55.160;36.002;2023-06-22T21:58:03;98724.47;;;20.09;59.73
75424;BME280;64005;55.160;36.002;2023-06-22T22:00:31;98721.25;;;20.07;59.75
75424;BME280;64005;55.160;36.002;2023-06-22T22:02:59;98718.84;;;19.98;60.68
75424;BME280;64005;55.160;36.002;2023-06-22T22:05:26;98716.00;;;19.95;61.18
75424;BME280;64005;55.160;36.002;2023-06-22T22:07:54;98718.84;;;19.95;61.25
75424;BME280;64005;55.160;36.002;2023-06-22T22:10:22;98714.00;;;19.92;61.32
75424;BME280;64005;55.160;36.002;2023-06-22T22:12:49;98709.19;;;19.85;61.92
75424;BME280;64005;55.160;36.002;2023-06-22T22:15:18;98705.97;;;19.79;62.06
75424;BME280;64005;55.160;36.002;2023-06-22T23:57:06;98575.38;;;18.62;70.47
75424;BME280;64005;55.160;36.002;2023-06-22T23:59:34;98563.72;;;18.60;70.45
